Time;durP1;ratioP1;P1;durP2;ratioP2;P2;SDS_P1;SDS_P2;PMS_P1;PMS_P2;Temp;Humidity;BMP_temperature;BMP_pressure;BME280_temperature;BME280_humidity;BME280_pressure;Samples;Min_cycle;Max_cycle;Signal;HPM_P1;HPM_P2
2022/07/24 00:00:56;;;;;;;12.02;9.20;;;;;;;18.18;76.69;100643.50;4994240;28;20026;-74
2022/07/24 00:03:22;;;;;;;15.20;10.18;;;;;;;18.12;76.63;100640.66;4994215;28;20106;-75
2022/07/24 00:05:48;;;;;;;10.88;9.23;;;;;;;18.09;76.71;100646.72;4994126;28;20022;-75
2022/07/24 00:08:17;;;;;;;13.75;9.77;;;;;;;18.09;77.52;100640.94;4993959;28;20093;-75
2022/07/24 00:10:42;;;;;;;14.10;10.18;;;;;;;18.09;78.39;100635.94;4994229;28;20113;-74
2022/07/24 00:13:08;;;;;;;13.90;11.50;;;;;;;18.10;78.77;100639.63;5008957;28;20105;-73
2022/07/24 00:15:34;;;;;;;13.25;9.93;;;;;;;18.08;78.26;100645.19;4994474;28;20034;-74
2022/07/24 00:17:59;;;;;;;11.55;9.63;;;;;;;18.13;77.84;100650.09;4992724;28;20468;-75
2022/07/24 00:20:25;;;;;;;18.73;10.63;;;;;;;18.13;77.84;100647.22;4993920;28;20026;-75
2022/07/24 00:22:51;;;;;;;13.63;10.50;;;;;;;18.15;78.30;100641.69;4992915;28;20041;-74
2022/07/24 00:25:18;;;;;;;13.00;9.48;;;;;;;18.11;78.66;100642.00;4993841;28;20101;-74
2022/07/24 00:27:43;;;;;;;14.77;10.85;;;;;;;18.11;78.50;100641.19;4994143;28;20022;-74
2022/07/24 00:30:09;;;;;;;14.77;10.65;;;;;;;18.17;78.58;100639.84;4993767;28;20015;-73
2022/07/24 00:32:48;;;;;;;17.52;11.73;;;;;;;18.17;78.58;100639.84;4992525;28;20042;-74
2022/07/24 00:36:12;;;;;;;14.52;10.93;;;;;;;-146.82;100.00;71671.09;4992002;28;20085;-75
2022/07/24 00:38:44;;;;;;;15.10;11.25;;;;;;;18.17;78.58;100639.84;4995967;28;20022;-75
2022/07/24 00:41:52;;;;;;;16.13;11.27;;;;;;;18.17;78.58;100639.84;5010722;28;20125;-74
2022/07/24 00:45:17;;;;;;;15.10;9.48;;;;;;;-146.82;100.00;71671.09;5010882;28;20453;-75
2022/07/24 00:47:58;;;;;;;15.10;10.45;;;;;;;18.17;78.58;100639.84;5010393;28;20037;-75
2022/07/24 00:50:24;;;;;;;15.93;12.00;;;;;;;18.04;79.42;100641.78;5011094;28;20493;-75
2022/07/24 00:52:58;;;;;;;13.13;10.00;;;;;;;18.00;79.59;100642.06;5012886;28;20033;-75
2022/07/24 00:55:27;;;;;;;12.55;10.68;;;;;;;17.94;80.58;100631.84;5011328;28;20348;-74
2022/07/24 00:57:52;;;;;;;13.68;10.48;;;;;;;17.91;80.53;100641.59;5011863;28;20461;-74
2022/07/24 01:00:19;;;;;;;18.30;10.50;;;;;;;17.88;80.21;100646.38;5011984;28;20102;-74
2022/07/24 01:02:45;;;;;;;12.50;9.95;;;;;;;17.81;80.03;100638.25;4994285;28;20042;-75
2022/07/24 01:05:11;;;;;;;14.68;10.13;;;;;;;17.83;80.62;100644.31;5012009;28;20030;-75
2022/07/24 01:07:36;;;;;;;13.85;10.75;;;;;;;17.70;80.39;100644.91;5011710;28;20084;-75
2022/07/24 01:10:10;;;;;;;15.75;11.30;;;;;;;17.71;80.13;100643.56;5011849;28;20375;-74
2022/07/24 01:12:39;;;;;;;16.33;11.48;;;;;;;17.60;80.60;100634.19;5012973;28;20030;-74
2022/07/24 01:15:06;;;;;;;12.82;9.50;;;;;;;17.59;80.80;100644.94;5011757;28;20038;-74
2022/07/24 01:17:34;;;;;;;14.48;10.82;;;;;;;17.62;81.31;100640.22;4997635;28;20057;-75
2022/07/24 01:20:02;;;;;;;15.73;10.23;;;;;;;17.63;80.63;100641.78;5015513;28;20042;-75
2022/07/24 01:22:28;;;;;;;13.20;10.65;;;;;;;17.57;80.71;100636.03;5015476;28;20068;-75
2022/07/24 01:24:55;;;;;;;13.05;10.20;;;;;;;17.49;80.14;100631.38;4999256;28;20037;-75
2022/07/24 01:27:33;;;;;;;14.00;10.77;;;;;;;17.47;80.30;100634.00;5015503;28;20026;-74
2022/07/24 01:30:00;;;;;;;13.32;10.07;;;;;;;17.42;79.98;100633.47;4998699;28;20114;-72
2022/07/24 01:32:26;;;;;;;20.30;11.48;;;;;;;17.33;80.06;100630.88;5015074;28;20120;-72
2022/07/24 01:35:06;;;;;;;12.77;10.45;;;;;;;17.18;80.86;100635.41;5016559;28;20501;-72
2022/07/24 01:37:32;;;;;;;13.30;10.73;;;;;;;17.18;81.88;100642.00;5016669;28;20076;-72
2022/07/24 01:39:58;;;;;;;14.20;10.55;;;;;;;17.13;81.41;100628.34;5015010;28;20069;-72
2022/07/24 01:42:25;;;;;;;15.27;10.40;;;;;;;17.16;81.47;100632.25;5016133;28;20032;-71
2022/07/24 01:44:52;;;;;;;15.95;11.00;;;;;;;17.15;81.62;100631.47;5016004;28;20466;-72
2022/07/24 01:47:19;;;;;;;16.55;10.70;;;;;;;17.02;81.79;100631.28;5016389;28;20026;-72
2022/07/24 01:49:46;;;;;;;15.50;11.45;;;;;;;16.98;82.15;100634.44;5015094;28;20034;-72
2022/07/24 01:52:12;;;;;;;13.30;10.35;;;;;;;16.95;81.95;100632.59;5016197;28;20117;-73
2022/07/24 01:54:40;;;;;;;13.00;9.98;;;;;;;16.90;82.08;100632.63;5014670;28;20108;-72
2022/07/24 01:57:06;;;;;;;14.48;10.82;;;;;;;16.93;82.78;100625.78;5014614;28;20438;-72
2022/07/24 01:59:32;;;;;;;14.93;10.63;;;;;;;16.90;82.92;100623.94;5016428;28;20029;-73
2022/07/24 02:01:58;;;;;;;13.70;11.10;;;;;;;17.04;81.98;100622.09;5016016;28;20026;-72
2022/07/24 02:04:25;;;;;;;14.30;10.93;;;;;;;16.88;81.95;100630.28;5015673;28;20021;-72
2022/07/24 02:06:51;;;;;;;12.20;9.95;;;;;;;16.81;82.12;100624.25;5014521;28;20033;-72
2022/07/24 02:09:17;;;;;;;16.60;11.38;;;;;;;16.89;82.17;100628.97;5015649;28;20033;-71
2022/07/24 02:11:44;;;;;;;16.50;11.65;;;;;;;16.88;82.22;100621.63;5014519;28;20136;-71
2022/07/24 02:14:10;;;;;;;16.60;12.30;;;;;;;16.84;81.96;100626.09;5015480;28;20091;-72
2022/07/24 02:16:37;;;;;;;15.07;10.68;;;;;;;17.08;81.32;100631.25;5013802;28;20121;-72
2022/07/24 02:19:03;;;;;;;13.35;10.40;;;;;;;17.06;81.31;100631.00;5014089;28;20026;-72
2022/07/24 02:21:30;;;;;;;16.27;11.32;;;;;;;17.02;80.95;100637.03;4997740;28;20387;-72
2022/07/24 02:23:56;;;;;;;17.42;11.93;;;;;;;16.95;81.45;100638.38;5014975;28;20072;-73
2022/07/24 02:26:23;;;;;;;15.07;10.82;;;;;;;16.94;81.07;100641.81;5014428;28;20045;-72
2022/07/24 02:28:49;;;;;;;13.60;10.73;;;;;;;16.81;81.54;100639.47;4996558;28;20018;-72
2022/07/24 02:31:15;;;;;;;17.52;10.63;;;;;;;16.86;81.94;100637.88;5015436;28;20025;-72
2022/07/24 02:33:41;;;;;;;14.32;11.32;;;;;;;16.87;81.77;100640.25;5015107;28;20041;-72
2022/07/24 02:36:09;;;;;;;16.73;11.70;;;;;;;16.71;82.02;100641.06;5015107;28;20072;-72
2022/07/24 02:38:35;;;;;;;16.08;12.80;;;;;;;16.71;81.93;100632.41;5014439;28;20502;-72
2022/07/24 02:41:00;;;;;;;13.82;10.55;;;;;;;16.61;81.68;100638.97;5015315;28;20040;-71
2022/07/24 02:43:27;;;;;;;15.63;11.05;;;;;;;16.57;82.01;100632.69;5014966;28;20406;-75
2022/07/24 02:45:53;;;;;;;18.00;12.55;;;;;;;16.58;82.78;100637.94;5013889;28;20498;-75
2022/07/24 02:48:20;;;;;;;16.80;11.70;;;;;;;16.54;82.84;100635.34;5013815;28;20029;-74
2022/07/24 02:50:47;;;;;;;15.75;12.10;;;;;;;16.53;82.45;100647.38;5012474;28;20435;-75
2022/07/24 02:53:12;;;;;;;13.95;10.82;;;;;;;16.34;82.74;100640.56;5011020;28;20095;-74
2022/07/24 02:55:39;;;;;;;19.27;12.07;;;;;;;16.32;84.13;100631.63;5013762;28;20026;-74
2022/07/24 02:58:06;;;;;;;14.07;10.57;;;;;;;16.36;84.50;100643.69;4997186;28;20041;-75
2022/07/24 03:00:32;;;;;;;14.82;10.63;;;;;;;16.32;84.62;100638.19;5013427;28;20471;-75
2022/07/24 03:02:58;;;;;;;15.65;11.52;;;;;;;16.52;84.86;100637.13;4997239;28;20495;-76
2022/07/24 03:05:24;;;;;;;17.20;11.52;;;;;;;16.52;83.50;100646.56;5012691;28;20065;-74
2022/07/24 03:07:51;;;;;;;15.93;10.80;;;;;;;16.48;83.21;100656.81;5014736;28;20100;-74
2022/07/24 03:10:16;;;;;;;14.63;11.30;;;;;;;16.42;83.24;100653.13;4996201;28;20026;-75
2022/07/24 03:12:43;;;;;;;17.95;11.13;;;;;;;16.40;83.36;100656.53;5014645;28;20017;-75
2022/07/24 03:15:12;;;;;;;15.63;12.25;;;;;;;16.45;83.45;100663.66;5014705;28;20526;-75
2022/07/24 03:17:39;;;;;;;15.25;10.93;;;;;;;16.43;83.25;100660.50;4997008;28;20101;-75
2022/07/24 03:20:05;;;;;;;17.52;11.15;;;;;;;16.45;83.33;100658.63;5009752;28;20034;-75
2022/07/24 03:22:30;;;;;;;15.75;11.75;;;;;;;16.49;83.01;100655.50;5014403;28;20570;-75
2022/07/24 03:24:57;;;;;;;16.23;11.00;;;;;;;16.59;82.64;100671.25;5013121;28;20125;-75
2022/07/24 03:27:24;;;;;;;13.18;9.70;;;;;;;16.53;82.92;100679.91;5014285;28;20079;-74
2022/07/24 03:29:50;;;;;;;13.63;10.50;;;;;;;16.63;82.17;100686.22;5012835;28;20018;-73
2022/07/24 03:32:16;;;;;;;13.02;10.63;;;;;;;16.65;81.44;100682.81;5014092;28;20033;-75
2022/07/24 03:34:43;;;;;;;12.82;10.02;;;;;;;16.67;81.37;100686.72;5014002;28;20391;-75
2022/07/24 03:37:09;;;;;;;13.10;9.57;;;;;;;16.76;81.00;100691.44;5012819;28;20112;-75
2022/07/24 03:39:34;;;;;;;12.40;8.82;;;;;;;16.81;80.44;100700.09;4979889;28;20549;-76
2022/07/24 03:42:00;;;;;;;11.88;9.05;;;;;;;16.87;80.03;100702.97;5013084;28;20121;-75
2022/07/24 03:44:26;;;;;;;11.18;8.88;;;;;;;16.92;79.57;100702.16;5014241;28;20053;-75
2022/07/24 03:46:53;;;;;;;10.10;8.20;;;;;;;16.99;79.19;100702.41;5012780;28;20033;-75
2022/07/24 03:49:21;;;;;;;14.13;10.23;;;;;;;17.04;78.49;100705.81;5013910;28;20036;-75
2022/07/24 03:51:47;;;;;;;10.65;8.45;;;;;;;17.09;78.01;100711.59;5012896;28;20482;-75
2022/07/24 03:54:14;;;;;;;11.95;8.98;;;;;;;17.11;77.55;100711.03;5013017;28;20072;-75
2022/07/24 03:56:40;;;;;;;11.45;8.15;;;;;;;17.19;77.20;100714.97;5013750;28;20026;-75
2022/07/24 03:59:06;;;;;;;10.75;8.20;;;;;;;17.28;76.85;100717.56;5012445;28;20033;-75
2022/07/24 04:01:32;;;;;;;10.70;7.97;;;;;;;17.31;76.44;100717.28;5013646;28;20378;-75
2022/07/24 04:04:04;;;;;;;13.75;8.70;;;;;;;17.36;76.04;100718.59;5012325;28;20065;-75
2022/07/24 04:06:32;;;;;;;10.40;8.68;;;;;;;17.39;75.82;100717.50;5012769;28;20041;-75
2022/07/24 04:09:00;;;;;;;11.77;9.00;;;;;;;17.45;75.66;100720.41;4995254;28;20088;-75
2022/07/24 04:11:26;;;;;;;12.68;8.18;;;;;;;17.46;75.75;100725.69;4996004;28;20038;-74
2022/07/24 04:13:52;;;;;;;14.52;8.57;;;;;;;17.60;75.29;100718.78;4995891;28;20487;-75
2022/07/24 04:16:19;;;;;;;13.13;9.32;;;;;;;17.59;74.47;100725.88;5011839;28;20050;-76
2022/07/24 04:18:59;;;;;;;10.38;8.48;;;;;;;17.60;74.26;100727.44;4996273;28;20041;-75
2022/07/24 04:21:26;;;;;;;12.73;9.27;;;;;;;17.68;74.27;100725.59;5012408;28;20022;-74
2022/07/24 04:23:51;;;;;;;13.27;8.98;;;;;;;17.78;74.21;100723.94;5012038;28;20484;-75
2022/07/24 04:26:17;;;;;;;12.55;8.02;;;;;;;17.87;73.72;100724.97;5013335;28;20071;-75
2022/07/24 04:28:43;;;;;;;9.70;7.75;;;;;;;17.94;73.65;100721.50;4995597;28;20127;-75
2022/07/24 04:31:10;;;;;;;12.35;8.20;;;;;;;18.05;73.41;100733.78;5013320;28;20052;-74
2022/07/24 04:33:36;;;;;;;10.88;7.97;;;;;;;18.32;72.45;100734.19;5013428;28;20080;-75
2022/07/24 04:36:03;;;;;;;9.55;7.88;;;;;;;18.51;71.64;100741.66;5012197;28;20034;-72
2022/07/24 04:38:28;;;;;;;10.02;7.45;;;;;;;18.52;70.63;100743.22;4996152;28;20483;-73
2022/07/24 04:40:55;;;;;;;9.32;7.95;;;;;;;18.45;70.84;100748.81;5012078;28;20105;-73
2022/07/24 04:43:21;;;;;;;10.48;7.45;;;;;;;18.43;70.89;100740.66;5013570;28;20087;-73
2022/07/24 04:45:46;;;;;;;12.85;8.57;;;;;;;18.24;71.73;100746.28;5013317;28;20471;-72
2022/07/24 04:48:12;;;;;;;10.95;7.35;;;;;;;18.47;70.76;100751.97;5011977;28;20053;-73
2022/07/24 04:50:37;;;;;;;9.73;7.60;;;;;;;18.54;70.54;100752.16;5011961;28;20048;-72
2022/07/24 04:53:03;;;;;;;9.23;7.32;;;;;;;18.56;70.09;100772.69;5015418;28;20029;-72
2022/07/24 04:55:28;;;;;;;9.23;7.63;;;;;;;18.60;70.18;100763.69;5015764;28;20060;-73
2022/07/24 04:57:54;;;;;;;10.27;8.02;;;;;;;18.67;69.54;100760.22;5016980;28;20471;-73
2022/07/24 05:00:20;;;;;;;13.75;8.80;;;;;;;18.75;69.54;100769.88;5016854;28;20116;-72
2022/07/24 05:02:46;;;;;;;9.88;7.95;;;;;;;18.85;69.85;100768.22;5015920;28;20137;-72
2022/07/24 05:05:12;;;;;;;9.63;6.60;;;;;;;18.95;69.04;100783.16;5015524;28;20129;-72
2022/07/24 05:07:39;;;;;;;10.45;7.68;;;;;;;18.94;68.01;100796.84;5016743;28;20037;-73
2022/07/24 05:10:06;;;;;;;8.73;7.00;;;;;;;19.00;68.06;100788.91;5015529;28;20028;-72
2022/07/24 05:12:34;;;;;;;9.85;6.75;;;;;;;19.05;67.92;100785.16;5016875;28;20033;-72
2022/07/24 05:15:00;;;;;;;8.00;6.45;;;;;;;19.08;67.66;100784.06;5015248;28;20510;-72
2022/07/24 05:17:25;;;;;;;10.38;7.63;;;;;;;19.02;66.71;100788.34;5015440;28;20125;-72
2022/07/24 05:19:52;;;;;;;7.88;6.50;;;;;;;19.05;66.77;100798.84;5016734;28;20120;-72
2022/07/24 05:22:18;;;;;;;12.00;7.60;;;;;;;19.12;66.83;100798.25;5016565;28;20475;-73
2022/07/24 05:24:44;;;;;;;9.32;6.30;;;;;;;19.12;66.00;100804.84;5015444;28;20071;-73
2022/07/24 05:27:10;;;;;;;9.25;6.80;;;;;;;19.15;66.89;100797.22;5016340;28;20026;-73
2022/07/24 05:29:36;;;;;;;10.65;6.20;;;;;;;19.17;66.76;100805.34;4998733;28;20025;-73
2022/07/24 05:32:02;;;;;;;8.23;6.35;;;;;;;19.32;66.64;100806.50;5016600;28;20029;-73
2022/07/24 05:34:29;;;;;;;7.13;5.90;;;;;;;19.39;66.22;100814.63;5016570;28;20030;-72
2022/07/24 05:36:55;;;;;;;9.02;6.78;;;;;;;19.18;65.83;100813.50;5014885;28;20359;-73
2022/07/24 05:39:23;;;;;;;7.57;6.15;;;;;;;19.15;66.60;100810.91;5016045;28;20056;-73
2022/07/24 05:41:49;;;;;;;6.47;5.57;;;;;;;19.24;66.46;100807.66;5015841;28;20041;-71
2022/07/24 05:44:15;;;;;;;6.82;5.68;;;;;;;19.26;65.33;100811.59;5015122;28;20117;-73
2022/07/24 05:46:48;;;;;;;7.95;5.97;;;;;;;19.29;65.04;100819.19;5014896;28;20475;-72
2022/07/24 05:49:15;;;;;;;11.13;5.85;;;;;;;19.33;64.88;100818.91;5016253;28;20022;-72
2022/07/24 05:51:41;;;;;;;6.65;5.57;;;;;;;19.40;64.09;100824.09;5015021;28;20028;-72
2022/07/24 05:54:06;;;;;;;9.10;6.25;;;;;;;19.40;64.34;100824.91;5016094;28;20105;-73
2022/07/24 05:56:32;;;;;;;6.85;5.38;;;;;;;19.41;64.54;100814.09;5015936;28;20121;-73
2022/07/24 05:58:58;;;;;;;7.10;5.97;;;;;;;19.48;64.57;100820.06;5014618;28;20026;-72
2022/07/24 06:01:23;;;;;;;6.38;5.45;;;;;;;19.50;64.93;100813.72;5014718;28;20542;-73
2022/07/24 06:03:50;;;;;;;7.82;5.22;;;;;;;19.62;63.70;100825.97;5013973;28;20105;-73
2022/07/24 06:06:15;;;;;;;6.35;4.85;;;;;;;19.67;64.24;100822.22;5011055;28;20023;-73
2022/07/24 06:08:41;;;;;;;7.97;5.43;;;;;;;19.88;63.82;100818.28;4997315;28;20428;-73
2022/07/24 06:11:06;;;;;;;5.00;4.05;;;;;;;20.08;63.37;100822.81;4997825;28;20396;-73
2022/07/24 06:13:32;;;;;;;5.70;4.30;;;;;;;20.80;62.70;100821.00;5015189;28;20030;-73
2022/07/24 06:15:59;;;;;;;3.97;3.65;;;;;;;22.15;59.60;100829.59;5015039;28;20036;-73
2022/07/24 06:18:25;;;;;;;4.25;3.75;;;;;;;22.87;55.05;100839.63;5014510;28;20046;-72
2022/07/24 06:20:50;;;;;;;4.55;3.78;;;;;;;22.85;53.44;100848.16;5014928;28;20079;-73
2022/07/24 06:23:17;;;;;;;4.78;3.65;;;;;;;22.68;53.96;100841.91;5014760;28;20037;-74
2022/07/24 06:25:43;;;;;;;4.32;3.90;;;;;;;22.59;54.33;100841.63;5015044;28;20038;-73
2022/07/24 06:28:08;;;;;;;5.05;4.32;;;;;;;22.45;53.64;100846.69;5013585;28;20034;-73
2022/07/24 06:30:35;;;;;;;4.65;3.65;;;;;;;22.47;53.78;100844.78;5014883;28;20022;-73
2022/07/24 06:33:00;;;;;;;4.30;3.03;;;;;;;23.59;53.49;100847.91;5015410;28;20386;-71
2022/07/24 06:35:26;;;;;;;4.25;3.58;;;;;;;26.31;49.96;100850.72;5014034;28;20479;-73
2022/07/24 06:37:53;;;;;;;3.58;2.30;;;;;;;29.26;42.69;100854.44;4997625;28;20044;-73
2022/07/24 06:40:20;;;;;;;2.30;2.10;;;;;;;32.32;36.36;100848.72;5013648;28;20026;-73
2022/07/24 06:42:50;;;;;;;3.88;2.40;;;;;;;34.90;31.41;100848.84;5014134;28;20045;-72
2022/07/24 06:45:16;;;;;;;3.72;2.30;;;;;;;37.26;29.13;100833.91;5014234;28;20034;-73
2022/07/24 06:47:42;;;;;;;3.17;2.42;;;;;;;38.78;25.60;100795.97;5015309;28;20025;-72
2022/07/24 06:50:18;;;;;;;3.25;2.08;;;;;;;40.30;22.53;100801.78;5015287;28;20105;-72
2022/07/24 06:52:45;;;;;;;3.03;2.17;;;;;;;41.83;20.45;100796.91;5014358;28;20065;-72
2022/07/24 06:55:12;;;;;;;2.70;2.20;;;;;;;42.57;18.21;100793.66;5013956;28;20021;-72
2022/07/24 06:57:37;;;;;;;1.80;1.70;;;;;;;43.51;17.95;100803.41;5015119;28;20018;-72
2022/07/24 07:00:06;;;;;;;1.80;1.70;;;;;;;43.56;16.84;100792.97;5014795;28;20049;-72
2022/07/24 07:02:31;;;;;;;1.85;1.65;;;;;;;43.26;16.71;100796.06;5013585;28;20128;-73
2022/07/24 07:04:57;;;;;;;2.03;1.77;;;;;;;43.70;16.54;100786.47;5014753;28;20116;-73
2022/07/24 07:07:24;;;;;;;3.25;1.70;;;;;;;44.69;16.70;100795.13;5014723;28;20029;-74
2022/07/24 07:09:50;;;;;;;1.95;1.65;;;;;;;44.47;15.09;100784.94;4997298;28;20387;-74
2022/07/24 07:12:16;;;;;;;1.40;1.30;;;;;;;44.89;15.12;100790.88;5013441;28;20033;-73
2022/07/24 07:14:58;;;;;;;4.05;1.25;;;;;;;45.69;13.05;100791.28;4996439;28;20030;-73
2022/07/24 07:17:25;;;;;;;1.33;1.20;;;;;;;45.87;14.68;100784.66;5014559;28;20087;-73
2022/07/24 07:19:51;;;;;;;1.15;1.05;;;;;;;46.37;13.19;100772.34;5013055;28;20713;-73
2022/07/24 07:22:18;;;;;;;1.77;0.85;;;;;;;47.29;13.19;100783.59;5013023;28;20101;-73
2022/07/24 07:24:44;;;;;;;1.60;0.88;;;;;;;47.86;11.94;100781.56;5014312;28;20417;-74
2022/07/24 07:27:10;;;;;;;1.23;0.80;;;;;;;48.14;12.47;100778.59;5014573;28;20033;-73
2022/07/24 07:29:35;;;;;;;0.80;0.70;;;;;;;47.81;11.37;100770.94;5013259;28;20394;-74
2022/07/24 07:32:01;;;;;;;1.52;0.98;;;;;;;47.75;11.13;100780.00;5014263;28;20026;-73
2022/07/24 07:34:28;;;;;;;1.35;0.90;;;;;;;47.33;10.47;100774.53;5014298;28;20097;-74
2022/07/24 07:36:53;;;;;;;0.80;0.80;;;;;;;46.85;11.56;100762.88;5013302;28;20037;-74
2022/07/24 07:39:19;;;;;;;1.55;0.70;;;;;;;46.84;11.30;100767.44;5012906;28;20026;-75
2022/07/24 07:41:45;;;;;;;0.95;0.68;;;;;;;46.43;11.32;100764.09;5014572;28;20029;-73
2022/07/24 07:44:12;;;;;;;0.98;0.73;;;;;;;46.16;11.22;100768.34;5014138;28;20570;-75
2022/07/24 07:46:37;;;;;;;0.98;0.70;;;;;;;46.30;11.43;100773.78;5012943;28;20103;-74
2022/07/24 07:49:04;;;;;;;0.70;0.70;;;;;;;46.96;10.65;100776.56;5012625;28;20065;-73
2022/07/24 07:51:31;;;;;;;0.47;0.47;;;;;;;46.32;11.01;100776.81;5014236;28;20475;-72
2022/07/24 07:53:57;;;;;;;1.05;0.95;;;;;;;46.03;11.39;100764.47;5012909;28;20030;-74
2022/07/24 07:56:23;;;;;;;2.15;0.75;;;;;;;46.67;11.68;100768.78;5012668;28;20025;-73
2022/07/24 07:58:49;;;;;;;2.42;0.90;;;;;;;47.33;11.25;100777.56;5014265;28;20030;-74
2022/07/24 08:01:14;;;;;;;0.80;0.80;;;;;;;48.00;10.87;100774.75;5013834;28;20356;-74
2022/07/24 08:03:39;;;;;;;1.38;0.90;;;;;;;48.45;9.63;100775.59;4996004;28;20033;-74
2022/07/24 08:06:06;;;;;;;4.95;0.98;;;;;;;48.40;11.13;100768.72;5012733;28;20390;-74
2022/07/24 08:08:31;;;;;;;0.80;0.80;;;;;;;49.17;10.38;100771.66;5012446;28;20096;-74
2022/07/24 08:10:57;;;;;;;1.33;0.98;;;;;;;49.27;9.32;100770.88;5013628;28;20475;-74
2022/07/24 08:13:28;;;;;;;0.93;0.82;;;;;;;49.62;9.77;100759.31;5011868;28;20041;-74
2022/07/24 08:15:55;;;;;;;0.82;0.68;;;;;;;50.19;8.99;100766.59;5012844;28;20426;-75
2022/07/24 08:18:20;;;;;;;0.95;0.80;;;;;;;50.43;9.05;100759.56;5012271;28;20450;-75
2022/07/24 08:20:50;;;;;;;1.77;0.82;;;;;;;50.81;9.04;100764.50;5013694;28;20028;-75
2022/07/24 08:23:16;;;;;;;0.80;0.80;;;;;;;50.72;8.49;100765.34;4996117;28;20033;-74
2022/07/24 08:25:56;;;;;;;1.20;1.10;;;;;;;50.53;9.18;100761.75;5012371;28;20147;-76
2022/07/24 08:28:22;;;;;;;;;;;;;;;50.08;8.94;100758.28;5017912;28;20025;-74
2022/07/24 08:30:50;;;;;;;1.23;0.90;;;;;;;49.90;9.27;100755.38;5016401;28;19920;-75
2022/07/24 08:33:18;;;;;;;2.72;1.10;;;;;;;49.32;9.29;100757.94;5000228;28;20044;-74
2022/07/24 08:35:44;;;;;;;4.15;1.33;;;;;;;48.17;10.05;100752.06;5017672;28;20076;-74
2022/07/24 08:38:10;;;;;;;1.33;1.02;;;;;;;47.18;10.64;100755.53;5017435;28;20407;-74
2022/07/24 08:40:38;;;;;;;1.33;1.23;;;;;;;46.14;10.49;100755.50;5016311;28;20026;-75
2022/07/24 08:43:09;;;;;;;1.25;1.13;;;;;;;45.41;10.99;100752.41;4999909;28;20111;-75
2022/07/24 08:45:38;;;;;;;1.77;1.02;;;;;;;44.62;11.86;100751.28;5015482;28;20034;-75
2022/07/24 08:48:07;;;;;;;1.17;1.00;;;;;;;43.93;12.43;100747.06;5017674;28;20029;-74
2022/07/24 08:50:51;;;;;;;1.42;0.90;;;;;;;42.59;13.55;100745.59;5000073;28;20049;-75
2022/07/24 08:53:20;;;;;;;1.10;1.00;;;;;;;42.05;13.93;100744.97;5016110;28;20041;-75
2022/07/24 08:55:47;;;;;;;1.10;1.10;;;;;;;41.77;13.54;100738.91;5000232;28;20038;-74
2022/07/24 08:58:13;;;;;;;1.95;1.13;;;;;;;40.89;14.46;100737.78;4999533;28;20053;-74
2022/07/24 09:00:41;;;;;;;1.95;1.00;;;;;;;40.06;14.57;100735.78;5016061;28;20030;-74
2022/07/24 09:03:07;;;;;;;1.15;0.93;;;;;;;39.81;15.55;100737.13;5016184;28;20026;-74
2022/07/24 09:05:34;;;;;;;2.55;1.00;;;;;;;39.73;14.61;100745.06;4999501;28;20044;-74
2022/07/24 09:08:12;;;;;;;2.08;1.38;;;;;;;39.36;15.31;100745.91;5015307;28;20479;-74
2022/07/24 09:10:37;;;;;;;1.20;0.88;;;;;;;39.35;15.24;100756.34;4999704;28;20045;-75
2022/07/24 09:13:15;;;;;;;1.40;1.30;;;;;;;39.32;15.42;100752.53;4999643;28;20038;-74
2022/07/24 09:15:47;;;;;;;2.38;0.98;;;;;;;39.10;15.50;100754.66;4999553;28;20030;-74
2022/07/24 09:18:35;;;;;;;2.30;0.98;;;;;;;38.52;15.68;100744.03;4998998;28;20411;-74
2022/07/24 09:21:16;;;;;;;0.80;0.80;;;;;;;38.16;16.27;100751.47;5017214;28;20552;-75
2022/07/24 09:23:44;;;;;;;1.95;1.00;;;;;;;37.63;16.34;100752.88;5015090;28;20083;-74
2022/07/24 09:26:10;;;;;;;1.83;1.00;;;;;;;37.58;16.90;100748.16;4999212;28;20112;-74
2022/07/24 09:28:55;;;;;;;1.38;1.10;;;;;;;37.42;17.03;100752.66;5016594;28;20439;-74
2022/07/24 09:31:29;;;;;;;0.80;0.80;;;;;;;36.86;17.38;100746.28;5015717;28;20049;-75
2022/07/24 09:33:59;;;;;;;0.90;0.90;;;;;;;36.68;17.06;100745.38;5014182;28;20058;-74
2022/07/24 09:36:26;;;;;;;;;;;;;;;36.48;17.08;100749.59;4999738;28;20124;-74
2022/07/24 09:38:54;;;;;;;1.42;0.90;;;;;;;36.11;18.06;100743.97;5014575;28;19909;-74
2022/07/24 09:41:26;;;;;;;1.00;0.90;;;;;;;35.67;17.64;100739.41;5015059;28;20030;-74
2022/07/24 09:44:00;;;;;;;1.55;0.90;;;;;;;35.19;17.99;100739.09;5017038;28;20076;-74
2022/07/24 09:46:27;;;;;;;0.80;0.77;;;;;;;34.66;19.04;100743.50;5013928;28;20104;-74
2022/07/24 09:49:24;;;;;;;0.93;0.90;;;;;;;34.21;19.22;100743.06;5014984;28;20113;-74
2022/07/24 09:52:22;;;;;;;2.13;0.60;;;;;;;33.99;19.72;100747.63;5014869;28;20053;-74
2022/07/24 09:54:51;;;;;;;0.75;0.70;;;;;;;33.90;18.95;100755.28;5016354;28;20494;-74
2022/07/24 09:57:30;;;;;;;0.98;0.77;;;;;;;33.73;19.83;100758.66;5014813;28;20049;-74
2022/07/24 09:59:58;;;;;;;0.70;0.70;;;;;;;33.35;19.43;100766.72;5016129;28;20033;-74
2022/07/24 10:02:30;;;;;;;0.70;0.70;;;;;;;33.10;20.28;100764.38;5014146;28;20049;-74
2022/07/24 10:05:03;;;;;;;1.08;0.90;;;;;;;32.89;20.54;100761.50;5014761;28;20064;-74
2022/07/24 10:07:29;;;;;;;1.75;0.73;;;;;;;32.77;20.97;100754.81;4998559;28;20121;-74
2022/07/24 10:10:02;;;;;;;1.23;0.88;;;;;;;32.67;21.58;100745.25;4998272;28;20038;-74
2022/07/24 10:12:35;;;;;;;0.98;0.88;;;;;;;32.59;21.28;100739.53;5014964;28;20044;-74
2022/07/24 10:15:06;;;;;;;0.52;0.52;;;;;;;32.24;21.24;100756.44;5014592;28;20475;-74
2022/07/24 10:17:41;;;;;;;0.70;0.70;;;;;;;32.07;21.44;100748.63;5014343;28;20133;-74
2022/07/24 10:20:08;;;;;;;0.93;0.82;;;;;;;31.95;21.61;100747.78;5015507;28;20030;-74
2022/07/24 10:23:01;;;;;;;1.73;0.70;;;;;;;31.51;21.99;100742.50;5016002;28;20042;-74
2022/07/24 10:25:27;;;;;;;0.95;0.73;;;;;;;31.20;22.43;100736.66;4997716;28;20132;-73
2022/07/24 10:28:11;;;;;;;1.15;0.82;;;;;;;30.99;22.64;100728.47;4997745;28;20498;-74
2022/07/24 10:30:38;;;;;;;1.48;0.77;;;;;;;30.81;22.91;100735.25;5014143;28;20383;-75
2022/07/24 10:33:04;;;;;;;0.70;0.70;;;;;;;30.66;22.97;100735.63;4997784;28;20049;-74
2022/07/24 10:35:32;;;;;;;2.05;0.70;;;;;;;30.48;23.65;100723.97;5014397;28;20105;-74
2022/07/24 10:38:08;;;;;;;2.75;0.75;;;;;;;30.28;23.25;100730.53;4998176;28;20029;-74
2022/07/24 10:40:44;;;;;;;0.73;0.70;;;;;;;30.19;23.84;100720.31;5015330;28;20030;-74
2022/07/24 10:43:28;;;;;;;3.38;0.73;;;;;;;30.11;22.95;100735.22;5013826;28;20117;-74
2022/07/24 10:45:56;;;;;;;0.63;0.63;;;;;;;29.89;22.49;100723.88;5015335;28;20104;-74
2022/07/24 10:48:23;;;;;;;1.48;0.70;;;;;;;29.73;22.83;100732.25;5015080;28;20611;-75
2022/07/24 10:51:09;;;;;;;0.93;0.57;;;;;;;29.59;22.50;100731.94;5014505;28;20446;-75
2022/07/24 10:53:41;;;;;;;2.78;0.70;;;;;;;29.58;23.59;100724.47;5015504;28;20080;-75
2022/07/24 10:56:26;;;;;;;0.63;0.63;;;;;;;29.50;23.36;100723.84;5015006;28;20037;-75
2022/07/24 10:58:55;;;;;;;1.25;0.57;;;;;;;29.44;24.16;100713.72;5014804;28;20096;-73
2022/07/24 11:01:29;;;;;;;1.63;0.70;;;;;;;29.47;23.78;100713.28;5015053;28;20028;-74
2022/07/24 11:03:56;;;;;;;2.58;0.80;;;;;;;29.35;22.46;100718.22;5015129;28;20080;-74
2022/07/24 11:06:42;;;;;;;0.80;0.80;;;;;;;28.99;23.01;100727.06;5013926;28;20033;-74
2022/07/24 11:09:09;;;;;;;0.50;0.50;;;;;;;28.82;23.28;100725.78;5013495;28;20108;-74
2022/07/24 11:11:51;;;;;;;0.70;0.60;;;;;;;28.66;23.36;100721.53;5013607;28;20566;-74
2022/07/24 11:14:41;;;;;;;2.17;0.75;;;;;;;28.51;24.64;100712.16;5013810;28;20106;-74
2022/07/24 11:17:47;;;;;;;1.00;0.82;;;;;;;28.45;24.61;100707.28;5014284;28;20058;-74
2022/07/24 11:20:20;;;;;;;0.73;0.73;;;;;;;28.44;23.26;100705.00;5014390;28;20026;-74
2022/07/24 11:22:51;;;;;;;1.20;0.80;;;;;;;28.32;23.17;100712.78;5014533;28;20037;-74
2022/07/24 11:25:39;;;;;;;0.82;0.82;;;;;;;28.15;23.00;100715.75;5013218;28;20129;-74
2022/07/24 11:28:08;;;;;;;0.85;0.63;;;;;;;28.11;23.58;100704.44;5014332;28;20470;-74